Sturgeon Bay, WI (54235)

10:14 AM CST on February 13, 2016 (GMT -0600)
City of Sturgeon Bay | | Change Station
CLOSE
Current Station
Personal Weather Station
Location: Sturgeon Bay, WI
Elevation: 633 ft
Nearby Weather Stations

Elev 633 ft 44.84 °N, 87.35 °W | Updated 14 minutes ago

Clear
Clear
11.1 °F
Feels Like 4 °F
N
3.8
Wind Variable Wind from West

Today
High -- | Low -- °F
--% Chance of Precip.
Yesterday
High -- | Low -- °F
Precip. -- in
Pressure 30.52 in
Visibility 10.0 miles
Clouds Clear
Windchill 4 °F
Dew Point -3 °F
Humidity 51%
Rainfall in
Snow Depth Not available.
6:53 AM 5:14 PM
Waxing Crescent, 32% visible
METAR KSUE 131555Z AUTO 29012KT 10SM CLR M17/M22 A3052 RMK AO1
Pressure 30.52 in
Visibility 10.0 miles
Clouds Clear
Windchill 4 °F
Dew Point -3 °F
Humidity 51%
Rainfall in
Snow Depth Not available.
6:53 AM 5:14 PM
Waxing Crescent, 32% visible
METAR KSUE 131555Z AUTO 29012KT 10SM CLR M17/M22 A3052 RMK AO1

10-Day Weather Forecast

Almanac

Astronomy

Feb. 13, 2016 Rise Set
Actual Time
Civil Twilight
Nautical Twilight
Astronomical Twilight
Moon
Length of Visible Light
Length of Day
Tomorrow will be .
, % of the Moon is Illuminated

Today's Extremes

State Highs State Lows

Community

WunderPhotos

Upload Photos

1,892,596 photos uploaded!

WunderBlog® & News

Nearby

Air Quality

  Air Quality AQ Index Pollutant
Not available.

Snow Depth

Station Depth Elevation

Earthquake Activity

City Distance Mag. Time & Date
Minimum magnitude displayed is 2.5.

Coastal Water Temperatures

Place Temperature

Stations

Nearby Weather Stations

Station Location Temp. Windchill Dew Point Humidity Wind Precip. Elev Updated Type
                   

Watches & Warnings

There are currently no watches in effect.